createdAt,value
2022-08-05T00:00:01.092Z,25.90
2022-08-05T00:02:07.859Z,26.10
2022-08-05T00:04:17.663Z,26.30
2022-08-05T00:06:30.799Z,26.50
2022-08-05T00:08:38.361Z,26.70
2022-08-05T00:10:43.009Z,26.80
2022-08-05T00:12:56.802Z,26.90
2022-08-05T00:15:54.142Z,26.90
2022-08-05T00:17:26.939Z,27.10
2022-08-05T00:19:33.145Z,27.20
2022-08-05T00:21:46.576Z,27.00
2022-08-05T00:23:53.573Z,26.80
2022-08-05T00:26:16.558Z,26.40
2022-08-05T00:28:29.806Z,26.10
2022-08-05T00:30:34.274Z,26.00
2022-08-05T00:32:40.571Z,25.90
2022-08-05T00:35:05.367Z,25.90
2022-08-05T00:37:14.317Z,25.80
2022-08-05T00:39:18.854Z,25.70
2022-08-05T00:41:51.712Z,25.50
2022-08-05T00:43:54.895Z,25.40
2022-08-05T00:45:59.302Z,25.20
2022-08-05T00:48:05.494Z,25.10
2022-08-05T00:50:11.085Z,25.00
2022-08-05T00:52:17.140Z,24.90
2022-08-05T00:54:22.029Z,24.90
2022-08-05T00:56:32.521Z,24.80
2022-08-05T00:58:46.361Z,24.80
2022-08-05T01:00:52.120Z,24.70
2022-08-05T01:02:57.456Z,24.70
2022-08-05T01:05:05.073Z,24.70
2022-08-05T01:07:14.469Z,24.70
2022-08-05T01:09:23.839Z,24.60
2022-08-05T01:11:37.673Z,24.50
2022-08-05T01:13:57.465Z,24.60
2022-08-05T01:16:06.372Z,24.60
2022-08-05T01:18:17.507Z,24.50
2022-08-05T01:20:36.672Z,24.60
2022-08-05T01:22:57.499Z,24.60
2022-08-05T01:25:20.946Z,24.50
2022-08-05T01:27:55.344Z,24.50
2022-08-05T01:30:05.006Z,24.50
2022-08-05T01:32:27.631Z,24.50
2022-08-05T01:34:36.772Z,24.50
2022-08-05T01:36:47.146Z,24.50
2022-08-05T01:38:52.498Z,24.60
2022-08-05T01:41:01.436Z,24.70
2022-08-05T01:43:22.390Z,24.80
2022-08-05T01:45:34.720Z,24.90
2022-08-05T01:47:50.331Z,25.10
2022-08-05T01:50:03.129Z,25.20
2022-08-05T01:52:17.327Z,25.20
2022-08-05T01:54:27.197Z,25.30
2022-08-05T01:58:10.037Z,25.30
2022-08-05T01:59:03.951Z,25.30
2022-08-05T02:01:09.434Z,25.20
2022-08-05T02:03:31.234Z,25.20
2022-08-05T02:05:39.993Z,25.10
2022-08-05T02:07:59.900Z,25.10
2022-08-05T02:10:07.873Z,25.00
2022-08-05T02:12:19.698Z,25.00
2022-08-05T02:14:32.301Z,24.80
2022-08-05T02:16:44.116Z,24.80
2022-08-05T02:18:54.412Z,24.80
2022-08-05T02:21:03.455Z,24.60
2022-08-05T02:23:12.435Z,24.40
2022-08-05T02:25:23.601Z,24.40
2022-08-05T02:27:59.411Z,24.50
2022-08-05T02:30:03.453Z,24.50
2022-08-05T02:32:11.414Z,24.50
2022-08-05T02:34:17.728Z,24.50
2022-08-05T02:36:27.413Z,24.50
2022-08-05T02:38:35.516Z,24.50
2022-08-05T02:40:44.240Z,24.40
2022-08-05T02:42:52.782Z,24.40
2022-08-05T02:45:01.660Z,24.40
2022-08-05T02:47:11.999Z,24.30
2022-08-05T02:49:18.191Z,24.30
2022-08-05T02:51:28.580Z,24.30
2022-08-05T02:53:54.867Z,24.20
2022-08-05T02:56:04.279Z,24.20
2022-08-05T02:58:13.244Z,24.10
2022-08-05T03:00:19.838Z,24.00
2022-08-05T03:02:29.728Z,24.00
2022-08-05T03:04:35.890Z,24.00
2022-08-05T03:06:56.473Z,24.00
2022-08-05T03:09:03.842Z,24.00
2022-08-05T03:11:54.842Z,24.00
2022-08-05T03:13:51.153Z,24.00
2022-08-05T03:15:58.200Z,23.80
2022-08-05T03:18:02.619Z,23.90
2022-08-05T03:20:09.066Z,23.80
2022-08-05T03:22:16.534Z,24.10
2022-08-05T03:24:30.262Z,24.50
2022-08-05T03:26:34.946Z,24.90
2022-08-05T03:28:39.960Z,25.40
2022-08-05T03:30:47.000Z,25.80
2022-08-05T03:32:53.162Z,26.20
2022-08-05T03:35:05.576Z,26.60
2022-08-05T03:37:10.118Z,26.90
2022-08-05T03:39:20.195Z,27.20
2022-08-05T03:41:33.301Z,27.40
2022-08-05T03:44:08.756Z,27.60
2022-08-05T03:46:13.639Z,27.70
2022-08-05T03:48:21.902Z,27.90
2022-08-05T03:50:30.159Z,28.00
2022-08-05T03:54:59.384Z,28.20
2022-08-05T03:56:05.756Z,28.40
2022-08-05T03:57:48.399Z,28.60
2022-08-05T04:00:01.612Z,28.70
2022-08-05T04:02:14.852Z,28.60
2022-08-05T04:04:26.525Z,28.60
2022-08-05T04:06:32.644Z,28.50
2022-08-05T04:08:37.432Z,28.50
2022-08-05T04:10:42.926Z,28.60
2022-08-05T04:12:47.489Z,28.60
2022-08-05T04:14:52.303Z,28.70
2022-08-05T04:16:56.935Z,28.20
2022-08-05T04:19:01.190Z,28.10
2022-08-05T04:21:07.886Z,28.60
2022-08-05T04:23:16.015Z,29.20
2022-08-05T04:25:24.249Z,29.40
2022-08-05T04:27:58.847Z,30.40
2022-08-05T04:30:05.369Z,30.90
2022-08-05T04:32:10.578Z,32.10
2022-08-05T04:34:32.891Z,32.40
2022-08-05T04:36:49.468Z,33.00
2022-08-05T04:38:55.266Z,33.50
2022-08-05T04:41:01.225Z,33.70
2022-08-05T04:43:11.061Z,33.80
2022-08-05T04:45:31.018Z,33.70
2022-08-05T04:47:47.280Z,33.50
2022-08-05T04:50:01.917Z,33.30
2022-08-05T04:52:12.379Z,33.10
2022-08-05T04:54:16.596Z,33.70
2022-08-05T04:56:35.035Z,34.10
2022-08-05T04:58:41.503Z,34.60
2022-08-05T05:00:45.800Z,34.80
2022-08-05T05:02:55.057Z,34.80
2022-08-05T05:05:02.251Z,34.10
2022-08-05T05:07:09.511Z,34.20
2022-08-05T05:09:17.707Z,34.70
2022-08-05T05:11:41.999Z,34.60
2022-08-05T05:13:50.805Z,34.90
2022-08-05T05:16:07.143Z,35.30
2022-08-05T05:18:14.088Z,35.30
2022-08-05T05:20:18.298Z,35.70
2022-08-05T05:22:26.436Z,35.80
2022-08-05T05:24:56.803Z,35.50
2022-08-05T05:26:56.780Z,35.50
2022-08-05T05:29:02.306Z,35.60
2022-08-05T05:31:08.783Z,36.00
2022-08-05T05:33:16.864Z,35.90
2022-08-05T05:35:22.648Z,35.50
2022-08-05T05:37:37.327Z,35.50
2022-08-05T05:39:52.587Z,35.70
2022-08-05T05:41:57.234Z,35.70
2022-08-05T05:44:01.468Z,36.00
2022-08-05T05:46:10.651Z,35.60
2022-08-05T05:48:18.427Z,35.50
2022-08-05T05:50:32.299Z,35.60
2022-08-05T05:52:40.574Z,35.70
2022-08-05T05:54:50.240Z,36.00
2022-08-05T05:56:56.844Z,36.40
2022-08-05T05:59:03.395Z,36.10
2022-08-05T06:01:12.772Z,36.30
2022-08-05T06:03:40.182Z,35.40
2022-08-05T06:05:42.029Z,35.90
2022-08-05T06:08:01.167Z,35.90
2022-08-05T06:10:10.343Z,35.60
2022-08-05T06:12:16.250Z,36.10
2022-08-05T06:14:23.839Z,36.50
2022-08-05T06:16:36.867Z,36.80
2022-08-05T06:18:41.570Z,37.20
2022-08-05T06:20:47.699Z,36.80
2022-08-05T06:22:52.062Z,37.00
2022-08-05T06:24:56.419Z,37.30
2022-08-05T06:27:00.964Z,36.80
2022-08-05T06:29:25.389Z,36.50
2022-08-05T06:31:32.098Z,36.70
2022-08-05T06:34:07.858Z,36.70
2022-08-05T06:36:07.517Z,36.90
2022-08-05T06:38:14.250Z,36.30
2022-08-05T06:40:21.026Z,35.30
2022-08-05T06:42:25.706Z,34.90
2022-08-05T06:44:31.876Z,35.30
2022-08-05T06:46:36.006Z,35.70
2022-08-05T06:48:55.740Z,35.50
2022-08-05T06:51:09.274Z,35.70
2022-08-05T06:53:22.720Z,35.80
2022-08-05T06:55:36.584Z,35.60
2022-08-05T06:58:02.982Z,35.10
2022-08-05T07:00:09.656Z,35.40
2022-08-05T07:02:14.197Z,35.90
2022-08-05T07:04:19.344Z,36.30
2022-08-05T07:06:23.939Z,36.20
2022-08-05T07:08:32.263Z,35.60
2022-08-05T07:10:36.491Z,35.50
2022-08-05T07:12:59.709Z,35.90
2022-08-05T07:15:34.394Z,36.10
2022-08-05T07:17:59.397Z,35.90
2022-08-05T07:20:32.212Z,35.40
2022-08-05T07:22:36.229Z,35.30
2022-08-05T07:24:43.945Z,35.60
2022-08-05T07:26:56.824Z,35.10
2022-08-05T07:29:01.420Z,35.10
2022-08-05T07:31:05.749Z,34.70
2022-08-05T07:33:15.968Z,34.80
2022-08-05T07:36:03.569Z,35.00
2022-08-05T07:37:47.308Z,34.40
2022-08-05T07:40:26.865Z,34.60
2022-08-05T07:42:16.317Z,35.30
2022-08-05T07:44:21.168Z,35.30
2022-08-05T07:46:27.492Z,35.20
2022-08-05T07:49:00.543Z,35.00
2022-08-05T07:50:57.934Z,35.40
2022-08-05T07:53:04.163Z,36.00
2022-08-05T07:55:43.887Z,36.40
2022-08-05T07:57:51.169Z,36.50
2022-08-05T07:59:58.504Z,36.70
2022-08-05T08:02:03.554Z,37.10
2022-08-05T08:04:09.398Z,37.30
2022-08-05T08:06:13.597Z,37.10
2022-08-05T08:08:20.025Z,36.70
2022-08-05T08:10:26.958Z,36.30
2022-08-05T08:12:48.433Z,35.80
2022-08-05T08:14:54.178Z,35.10
2022-08-05T08:16:58.617Z,35.20
2022-08-05T08:19:03.457Z,35.30
2022-08-05T08:21:17.517Z,35.70
2022-08-05T08:24:03.014Z,35.80
2022-08-05T08:26:00.458Z,35.50
2022-08-05T08:28:06.491Z,36.00
2022-08-05T08:30:31.311Z,36.20
2022-08-05T08:32:41.874Z,36.60
2022-08-05T08:34:46.232Z,36.90
2022-08-05T08:36:57.796Z,36.10
2022-08-05T08:39:15.667Z,35.20
2022-08-05T08:41:21.036Z,35.30
2022-08-05T08:45:22.191Z,35.00
2022-08-05T08:45:59.139Z,35.30
2022-08-05T08:48:22.679Z,35.90
2022-08-05T08:51:03.832Z,36.50
2022-08-05T08:53:02.936Z,36.70
2022-08-05T08:55:13.174Z,36.90
2022-08-05T08:57:17.823Z,36.40
2022-08-05T08:59:27.580Z,36.30
2022-08-05T09:01:33.737Z,35.90
2022-08-05T09:03:44.921Z,35.40
2022-08-05T09:06:08.417Z,35.90
2022-08-05T09:08:16.799Z,36.40
2022-08-05T09:10:27.709Z,36.20
2022-08-05T09:12:33.995Z,35.90
2022-08-05T09:14:59.092Z,35.90
2022-08-05T09:17:08.163Z,36.00
2022-08-05T09:19:14.697Z,36.40
2022-08-05T09:21:20.780Z,36.40
2022-08-05T09:23:47.177Z,35.60
2022-08-05T09:26:01.136Z,35.50
2022-08-05T09:28:21.032Z,35.70
2022-08-05T09:30:25.702Z,36.00
2022-08-05T09:32:41.376Z,36.10
2022-08-05T09:34:55.111Z,35.90
2022-08-05T09:36:59.910Z,36.20
2022-08-05T09:39:18.575Z,36.40
2022-08-05T09:41:26.764Z,36.70
2022-08-05T09:43:41.158Z,36.70
2022-08-05T09:46:07.397Z,35.80
2022-08-05T09:48:26.969Z,35.30
2022-08-05T09:50:43.845Z,34.70
2022-08-05T09:52:58.229Z,34.80
2022-08-05T09:55:58.036Z,34.80
2022-08-05T09:57:40.041Z,34.90
2022-08-05T09:59:50.073Z,35.20
2022-08-05T10:01:59.489Z,35.60
2022-08-05T10:04:10.591Z,35.90
2022-08-05T10:06:16.038Z,35.80
2022-08-05T10:08:37.273Z,36.00
2022-08-05T10:10:53.965Z,36.00
2022-08-05T10:13:00.816Z,35.90
2022-08-05T10:15:23.094Z,35.70
2022-08-05T10:17:39.305Z,35.10
2022-08-05T10:20:04.162Z,34.50
2022-08-05T10:22:15.658Z,34.70
2022-08-05T10:24:34.373Z,35.10
2022-08-05T10:26:51.459Z,35.40
2022-08-05T10:28:56.874Z,35.40
2022-08-05T10:32:47.217Z,35.30
2022-08-05T10:33:29.137Z,34.60
2022-08-05T10:35:40.702Z,34.50
2022-08-05T10:37:49.847Z,34.80
2022-08-05T10:40:16.704Z,34.60
2022-08-05T10:42:33.379Z,34.60
2022-08-05T10:44:40.230Z,34.20
2022-08-05T10:46:51.033Z,34.40
2022-08-05T10:49:08.044Z,34.60
2022-08-05T10:51:22.115Z,34.60
2022-08-05T10:53:45.855Z,34.80
2022-08-05T10:56:07.977Z,35.00
2022-08-05T10:58:47.663Z,34.70
2022-08-05T11:00:54.968Z,34.60
2022-08-05T11:03:25.702Z,34.40
2022-08-05T11:05:31.765Z,34.60
2022-08-05T11:08:02.378Z,34.50
2022-08-05T11:10:27.214Z,34.40
2022-08-05T11:12:54.369Z,34.30
2022-08-05T11:15:19.750Z,34.40
2022-08-05T11:18:09.504Z,34.30
2022-08-05T11:20:10.722Z,34.50
2022-08-05T11:22:43.330Z,34.80
2022-08-05T11:26:06.223Z,35.20
2022-08-05T11:28:00.748Z,35.50
2022-08-05T11:30:06.436Z,35.70
2022-08-05T11:32:30.248Z,35.80
2022-08-05T11:34:51.525Z,35.90
2022-08-05T11:36:58.774Z,35.70
2022-08-05T11:39:03.574Z,35.90
2022-08-05T11:41:34.592Z,36.20
2022-08-05T11:44:04.337Z,36.10
2022-08-05T11:46:23.396Z,35.80
2022-08-05T11:48:25.917Z,35.30
2022-08-05T11:50:30.503Z,35.10
2022-08-05T11:52:34.937Z,34.80
2022-08-05T11:54:41.247Z,34.60
2022-08-05T11:56:50.260Z,34.30
2022-08-05T11:58:56.800Z,34.40
2022-08-05T12:01:04.662Z,34.50
2022-08-05T12:03:24.014Z,34.90
2022-08-05T12:05:36.354Z,34.90
2022-08-05T12:08:08.180Z,34.90
2022-08-05T12:10:19.557Z,34.90
2022-08-05T12:12:25.842Z,34.90
2022-08-05T12:14:38.398Z,35.20
2022-08-05T12:16:48.523Z,35.40
2022-08-05T12:18:53.474Z,35.30
2022-08-05T12:21:11.388Z,35.30
2022-08-05T12:23:16.579Z,35.30
2022-08-05T12:25:20.767Z,35.60
2022-08-05T12:27:33.387Z,35.70
2022-08-05T12:29:39.025Z,35.80
2022-08-05T12:31:50.136Z,35.80
2022-08-05T12:33:58.488Z,35.80
2022-08-05T12:36:07.886Z,35.10
2022-08-05T12:38:13.199Z,34.90
2022-08-05T12:40:26.882Z,34.90
2022-08-05T12:42:33.508Z,35.00
2022-08-05T12:44:38.204Z,35.00
2022-08-05T12:46:54.143Z,35.20
2022-08-05T12:49:00.316Z,34.90
2022-08-05T12:52:11.235Z,35.30
2022-08-05T12:53:47.389Z,35.70
2022-08-05T12:56:00.284Z,35.70
2022-08-05T12:58:38.267Z,35.60
2022-08-05T13:02:00.488Z,35.60
2022-08-05T13:02:57.458Z,35.50
2022-08-05T13:05:02.444Z,35.20
2022-08-05T13:07:15.951Z,35.40
2022-08-05T13:09:28.628Z,35.60
2022-08-05T13:12:02.018Z,35.80
2022-08-05T13:14:06.217Z,35.80
2022-08-05T13:16:16.749Z,35.60
2022-08-05T13:18:21.513Z,35.50
2022-08-05T13:20:40.461Z,35.40
2022-08-05T13:22:51.262Z,35.30
2022-08-05T13:24:57.937Z,35.10
2022-08-05T13:27:05.386Z,34.80
2022-08-05T13:29:18.947Z,34.70
2022-08-05T13:32:04.549Z,35.00
2022-08-05T13:34:24.774Z,35.20
2022-08-05T13:36:29.739Z,35.10
2022-08-05T13:38:42.106Z,35.30
2022-08-05T13:40:49.994Z,35.60
2022-08-05T13:42:56.722Z,35.70
2022-08-05T13:45:01.775Z,35.90
2022-08-05T13:47:09.230Z,35.70
2022-08-05T13:49:14.247Z,35.60
2022-08-05T13:51:28.738Z,35.60
2022-08-05T13:53:35.241Z,35.80
2022-08-05T13:55:58.776Z,36.00
2022-08-05T13:58:06.171Z,35.80
2022-08-05T14:00:11.661Z,35.60
2022-08-05T14:02:20.111Z,35.90
2022-08-05T14:04:51.200Z,36.10
2022-08-05T14:07:11.882Z,36.20
2022-08-05T14:09:21.859Z,36.30
2022-08-05T14:11:26.177Z,36.30
2022-08-05T14:13:35.632Z,36.10
2022-08-05T14:16:07.500Z,35.70
2022-08-05T14:18:04.328Z,35.40
2022-08-05T14:20:10.317Z,35.50
2022-08-05T14:22:22.727Z,35.10
2022-08-05T14:24:28.428Z,34.90
2022-08-05T14:26:38.476Z,34.70
2022-08-05T14:28:52.231Z,34.90
2022-08-05T14:30:56.876Z,34.90
2022-08-05T14:33:01.137Z,34.70
2022-08-05T14:35:06.038Z,34.60
2022-08-05T14:37:15.715Z,34.50
2022-08-05T14:39:23.247Z,34.60
2022-08-05T14:41:29.291Z,34.70
2022-08-05T14:44:01.905Z,34.80
2022-08-05T14:45:57.735Z,35.00
2022-08-05T14:48:05.295Z,34.90
2022-08-05T14:50:14.242Z,34.90
2022-08-05T14:52:50.066Z,35.00
2022-08-05T14:54:52.881Z,35.10
2022-08-05T14:56:59.568Z,35.00
2022-08-05T14:59:03.881Z,35.00
2022-08-05T15:01:15.534Z,35.10
2022-08-05T15:03:20.598Z,35.20
2022-08-05T15:05:29.836Z,35.20
2022-08-05T15:08:11.575Z,35.10
2022-08-05T15:10:16.492Z,35.10
2022-08-05T15:12:22.090Z,35.20
2022-08-05T15:14:35.017Z,35.20
2022-08-05T15:16:45.563Z,35.20
2022-08-05T15:18:51.358Z,34.60
2022-08-05T15:20:56.763Z,34.60
2022-08-05T15:23:13.371Z,34.50
2022-08-05T15:25:17.752Z,34.60
2022-08-05T15:27:32.069Z,34.60
2022-08-05T15:29:41.903Z,34.60
2022-08-05T15:31:52.422Z,34.70
2022-08-05T15:34:19.057Z,34.60
2022-08-05T15:36:24.729Z,34.60
2022-08-05T15:38:35.992Z,34.40
2022-08-05T15:41:21.522Z,34.40
2022-08-05T15:43:10.869Z,34.60
2022-08-05T15:45:38.000Z,34.50
2022-08-05T15:47:44.672Z,34.20
2022-08-05T15:49:58.515Z,34.30
2022-08-05T15:52:13.941Z,34.40
2022-08-05T15:54:21.526Z,34.40
2022-08-05T15:56:39.837Z,34.30
2022-08-05T15:58:46.448Z,34.00
2022-08-05T16:01:11.758Z,34.00
2022-08-05T16:03:15.865Z,34.10
2022-08-05T16:05:20.622Z,34.10
2022-08-05T16:07:32.548Z,34.20
2022-08-05T16:09:41.593Z,34.30
2022-08-05T16:11:49.693Z,34.30
2022-08-05T16:13:58.750Z,34.30
2022-08-05T16:16:03.750Z,34.30
2022-08-05T16:18:09.204Z,34.40
2022-08-05T16:20:13.784Z,34.30
2022-08-05T16:22:18.187Z,34.30
2022-08-05T16:24:39.479Z,34.10
2022-08-05T16:26:52.463Z,34.10
2022-08-05T16:28:58.263Z,34.00
2022-08-05T16:31:02.510Z,34.00
2022-08-05T16:33:07.929Z,33.90
2022-08-05T16:35:12.134Z,33.50
2022-08-05T16:38:16.013Z,33.30
2022-08-05T16:40:06.395Z,33.10
2022-08-05T16:42:14.592Z,32.90
2022-08-05T16:44:25.681Z,32.60
2022-08-05T16:46:30.177Z,32.60
2022-08-05T16:48:36.580Z,32.30
2022-08-05T16:50:40.981Z,32.20
2022-08-05T16:52:48.396Z,32.30
2022-08-05T16:54:54.201Z,32.30
2022-08-05T16:56:59.010Z,32.20
2022-08-05T16:59:08.275Z,32.20
2022-08-05T17:01:19.193Z,32.20
2022-08-05T17:03:26.235Z,32.20
2022-08-05T17:05:32.950Z,32.00
2022-08-05T17:07:49.739Z,31.80
2022-08-05T17:09:59.274Z,31.80
2022-08-05T17:12:04.100Z,31.90
2022-08-05T17:14:08.632Z,31.80
2022-08-05T17:16:32.466Z,31.70
2022-08-05T17:18:40.173Z,31.50
2022-08-05T17:20:45.984Z,31.50
2022-08-05T17:22:55.391Z,31.50
2022-08-05T17:25:00.439Z,31.50
2022-08-05T17:27:05.418Z,31.50
2022-08-05T17:29:10.360Z,31.50
2022-08-05T17:31:24.639Z,31.40
2022-08-05T17:33:48.522Z,31.50
2022-08-05T17:36:08.050Z,31.50
2022-08-05T17:38:14.712Z,31.50
2022-08-05T17:40:22.652Z,31.40
2022-08-05T17:42:32.006Z,31.40
2022-08-05T17:44:37.128Z,31.40
2022-08-05T17:46:41.696Z,31.30
2022-08-05T17:48:48.594Z,31.30
2022-08-05T17:50:53.454Z,31.10
2022-08-05T17:53:00.279Z,31.10
2022-08-05T17:55:05.095Z,31.10
2022-08-05T17:57:12.673Z,31.00
2022-08-05T17:59:20.854Z,31.00
2022-08-05T18:01:25.588Z,31.00
2022-08-05T18:03:59.231Z,30.90
2022-08-05T18:06:01.741Z,30.80
2022-08-05T18:08:06.999Z,30.80
2022-08-05T18:10:20.791Z,30.70
2022-08-05T18:12:26.289Z,30.60
2022-08-05T18:14:30.881Z,30.70
2022-08-05T18:16:51.231Z,30.60
2022-08-05T18:18:57.359Z,30.50
2022-08-05T18:21:03.689Z,30.40
2022-08-05T18:23:17.538Z,30.30
2022-08-05T18:25:22.669Z,30.40
2022-08-05T18:27:30.061Z,30.40
2022-08-05T18:29:40.482Z,30.40
2022-08-05T18:31:46.262Z,30.30
2022-08-05T18:33:54.235Z,30.30
2022-08-05T18:36:04.950Z,30.40
2022-08-05T18:38:10.310Z,30.40
2022-08-05T18:41:49.925Z,30.60
2022-08-05T18:42:39.992Z,30.60
2022-08-05T18:44:51.423Z,30.70
2022-08-05T18:47:01.455Z,30.70
2022-08-05T18:49:19.562Z,30.90
2022-08-05T18:52:04.715Z,30.90
2022-08-05T18:54:07.518Z,30.90
2022-08-05T18:56:13.378Z,30.70
2022-08-05T18:58:18.590Z,30.60
2022-08-05T19:00:31.498Z,30.50
2022-08-05T19:02:39.622Z,30.40
2022-08-05T19:05:01.796Z,30.30
2022-08-05T19:07:10.061Z,30.20
2022-08-05T19:09:14.275Z,30.20
2022-08-05T19:11:21.900Z,30.10
2022-08-05T19:13:35.687Z,30.10
2022-08-05T19:16:00.190Z,30.10
2022-08-05T19:18:10.418Z,30.10
2022-08-05T19:20:17.712Z,30.00
2022-08-05T19:22:27.845Z,30.00
2022-08-05T19:24:34.794Z,30.00
2022-08-05T19:26:54.967Z,30.00
2022-08-05T19:29:00.105Z,30.00
2022-08-05T19:31:05.715Z,30.00
2022-08-05T19:33:12.880Z,30.00
2022-08-05T19:35:21.812Z,30.00
2022-08-05T19:37:34.964Z,30.00
2022-08-05T19:39:52.512Z,30.10
2022-08-05T19:42:05.944Z,30.00
2022-08-05T19:44:13.414Z,30.00
2022-08-05T19:46:30.228Z,30.00
2022-08-05T19:48:37.229Z,30.00
2022-08-05T19:50:41.641Z,30.10
2022-08-05T19:52:47.742Z,30.10
2022-08-05T19:54:52.743Z,30.10
2022-08-05T19:56:57.064Z,30.20
2022-08-05T19:59:54.600Z,30.20
2022-08-05T20:01:28.587Z,30.10
2022-08-05T20:03:38.714Z,30.10
2022-08-05T20:05:51.235Z,30.20
2022-08-05T20:07:59.185Z,30.20
2022-08-05T20:10:11.411Z,30.10
2022-08-05T20:12:17.789Z,30.00
2022-08-05T20:14:27.135Z,29.90
2022-08-05T20:16:31.653Z,29.90
2022-08-05T20:18:37.595Z,29.90
2022-08-05T20:20:48.182Z,29.80
2022-08-05T20:22:52.586Z,29.70
2022-08-05T20:24:58.322Z,29.60
2022-08-05T20:27:02.743Z,29.60
2022-08-05T20:29:06.943Z,29.50
2022-08-05T20:31:42.044Z,29.50
2022-08-05T20:33:47.577Z,29.50
2022-08-05T20:35:52.049Z,29.40
2022-08-05T20:38:05.419Z,29.40
2022-08-05T20:40:13.853Z,29.40
2022-08-05T20:42:21.560Z,29.30
2022-08-05T20:44:37.858Z,29.20
2022-08-05T20:46:42.504Z,29.20
2022-08-05T20:48:51.098Z,29.20
2022-08-05T20:50:55.774Z,29.10
2022-08-05T20:53:03.649Z,29.10
2022-08-05T20:55:54.947Z,29.10
2022-08-05T20:57:43.700Z,29.20
2022-08-05T21:00:20.321Z,29.20
2022-08-05T21:02:13.880Z,29.20
2022-08-05T21:04:24.011Z,29.10
2022-08-05T21:06:33.121Z,29.10
2022-08-05T21:08:42.370Z,29.00
2022-08-05T21:10:49.782Z,29.10
2022-08-05T21:12:57.792Z,29.10
2022-08-05T21:15:12.711Z,29.10
2022-08-05T21:17:17.723Z,29.20
2022-08-05T21:19:26.041Z,29.20
2022-08-05T21:21:39.764Z,29.20
2022-08-05T21:23:57.189Z,29.20
2022-08-05T21:26:12.369Z,29.30
2022-08-05T21:28:23.921Z,29.20
2022-08-05T21:30:35.039Z,29.20
2022-08-05T21:32:39.910Z,29.20
2022-08-05T21:35:08.166Z,29.10
2022-08-05T21:37:11.313Z,29.10
2022-08-05T21:39:26.264Z,29.00
2022-08-05T21:41:34.261Z,29.00
2022-08-05T21:43:43.245Z,28.90
2022-08-05T21:46:06.392Z,28.90
2022-08-05T21:48:11.604Z,28.80
2022-08-05T21:50:18.236Z,28.80
2022-08-05T21:52:28.429Z,28.80
2022-08-05T21:54:33.248Z,28.50
2022-08-05T21:56:44.580Z,28.50
2022-08-05T21:58:57.604Z,28.40
2022-08-05T22:01:02.537Z,28.40
2022-08-05T22:03:07.028Z,28.20
2022-08-05T22:05:14.855Z,28.30
2022-08-05T22:07:20.092Z,28.20
2022-08-05T22:09:45.490Z,28.20
2022-08-05T22:11:52.272Z,28.20
2022-08-05T22:14:06.432Z,28.10
2022-08-05T22:16:41.289Z,28.10
2022-08-05T22:18:49.244Z,28.10
2022-08-05T22:20:54.263Z,28.20
2022-08-05T22:23:21.302Z,28.10
2022-08-05T22:26:09.850Z,28.00
2022-08-05T22:28:12.169Z,28.00
2022-08-05T22:30:17.410Z,28.00
2022-08-05T22:32:21.795Z,28.00
2022-08-05T22:34:28.803Z,28.00
2022-08-05T22:36:38.794Z,28.10
2022-08-05T22:38:47.970Z,28.10
2022-08-05T22:40:54.978Z,28.10
2022-08-05T22:42:59.619Z,28.10
2022-08-05T22:45:06.375Z,28.10
2022-08-05T22:47:14.811Z,28.10
2022-08-05T22:50:17.623Z,28.00
2022-08-05T22:52:05.842Z,27.90
2022-08-05T22:54:12.422Z,27.90
2022-08-05T22:56:17.112Z,27.80
2022-08-05T22:58:28.561Z,27.70
2022-08-05T23:00:34.724Z,27.80
2022-08-05T23:02:46.920Z,27.70
2022-08-05T23:04:55.606Z,27.60
2022-08-05T23:07:00.312Z,27.50
2022-08-05T23:09:14.619Z,27.40
2022-08-05T23:11:29.841Z,27.30
2022-08-05T23:13:35.097Z,27.30
2022-08-05T23:15:42.967Z,27.20
2022-08-05T23:18:01.601Z,27.00
2022-08-05T23:20:17.617Z,26.90
2022-08-05T23:22:27.077Z,26.80
2022-08-05T23:24:32.374Z,26.70
2022-08-05T23:26:36.728Z,26.70
2022-08-05T23:28:43.044Z,26.70
2022-08-05T23:30:53.124Z,26.70
2022-08-05T23:32:58.824Z,26.60
2022-08-05T23:35:03.140Z,26.60
2022-08-05T23:37:08.285Z,26.60
2022-08-05T23:39:31.855Z,26.60
2022-08-05T23:41:41.039Z,26.60
2022-08-05T23:44:04.797Z,26.50
2022-08-05T23:46:21.133Z,26.50
2022-08-05T23:48:27.055Z,26.50
2022-08-05T23:50:33.264Z,26.50
2022-08-05T23:52:49.877Z,26.50
2022-08-05T23:54:55.926Z,26.50
2022-08-05T23:57:03.774Z,26.40
2022-08-05T23:59:08.942Z,26.50
